<?xml version="1.0" encoding="UTF-8" standalone="no" ?>
<gpx xmlns="http://www.topografix.com/GPX/1/1" xmlns:xsi="http://www.w3.org/2001/XMLSchema-instance" xsi:schemaLocation="http://www.topografix.com/GPX/1/1 http://www.topografix.com/GPX/1/1/gpx.xsd" version="1.1" creator="VisuGPX - https://www.visugpx.com">
  <metadata>
    <name>Nomdieu 8.9 km</name>
  </metadata>
  <trk>
    <name><![CDATA[2024 11 14 Nomdieu Pierre 8]]></name>
    <extensions>
      <line xmlns="http://www.topografix.com/GPX/gpx_style/0/2">
        <color>0000FF</color>
        <width>4</width>
      </line>
    </extensions>
    <trkseg>
      <trkpt lat="44.09495" lon="0.4754">
        <ele>79.4</ele>
        <time>2024-11-14T13:19:20.179Z</time>
      </trkpt>
      <trkpt lat="44.09493" lon="0.47546">
        <ele>79.5</ele>
      </trkpt>
      <trkpt lat="44.09452" lon="0.4754">
        <ele>69</ele>
        <time>2024-11-14T13:19:56.179Z</time>
      </trkpt>
      <trkpt lat="44.09446" lon="0.47521">
        <ele>79</ele>
        <time>2024-11-14T13:20:20.179Z</time>
      </trkpt>
      <trkpt lat="44.09433" lon="0.47502">
        <ele>78</ele>
        <time>2024-11-14T13:20:36.179Z</time>
      </trkpt>
      <trkpt lat="44.09429" lon="0.47485">
        <ele>77</ele>
        <time>2024-11-14T13:20:44.179Z</time>
      </trkpt>
      <trkpt lat="44.09432" lon="0.47471">
        <ele>76</ele>
        <time>2024-11-14T13:20:52.179Z</time>
      </trkpt>
      <trkpt lat="44.09436" lon="0.47465">
        <ele>77</ele>
        <time>2024-11-14T13:20:56.179Z</time>
      </trkpt>
      <trkpt lat="44.0944" lon="0.47454">
        <ele>83.8</ele>
        <time>2024-11-14T13:21:04.179Z</time>
      </trkpt>
      <trkpt lat="44.09423" lon="0.47436">
        <ele>72</ele>
        <time>2024-11-14T13:21:20.179Z</time>
      </trkpt>
      <trkpt lat="44.09406" lon="0.47423">
        <ele>71</ele>
        <time>2024-11-14T13:21:36.179Z</time>
      </trkpt>
      <trkpt lat="44.09394" lon="0.47404">
        <ele>73</ele>
        <time>2024-11-14T13:21:52.179Z</time>
      </trkpt>
      <trkpt lat="44.09377" lon="0.47388">
        <ele>74</ele>
        <time>2024-11-14T13:22:08.179Z</time>
      </trkpt>
      <trkpt lat="44.09364" lon="0.47378">
        <ele>78</ele>
        <time>2024-11-14T13:22:20.179Z</time>
      </trkpt>
      <trkpt lat="44.09351" lon="0.47368">
        <ele>81</ele>
        <time>2024-11-14T13:22:52.179Z</time>
      </trkpt>
      <trkpt lat="44.09311" lon="0.47338">
        <ele>83</ele>
        <time>2024-11-14T13:23:24.179Z</time>
      </trkpt>
      <trkpt lat="44.09264" lon="0.47297">
        <ele>87</ele>
        <time>2024-11-14T13:24:04.179Z</time>
      </trkpt>
      <trkpt lat="44.09253" lon="0.47283">
        <ele>87</ele>
        <time>2024-11-14T13:24:16.179Z</time>
      </trkpt>
      <trkpt lat="44.09245" lon="0.47269">
        <ele>98.2</ele>
        <time>2024-11-14T13:24:24.179Z</time>
      </trkpt>
      <trkpt lat="44.09234" lon="0.4728">
        <ele>88</ele>
        <time>2024-11-14T13:24:32.179Z</time>
      </trkpt>
      <trkpt lat="44.0922" lon="0.4729">
        <ele>87</ele>
        <time>2024-11-14T13:24:48.179Z</time>
      </trkpt>
      <trkpt lat="44.0914" lon="0.47386">
        <ele>82</ele>
        <time>2024-11-14T13:26:08.179Z</time>
      </trkpt>
      <trkpt lat="44.09121" lon="0.47404">
        <ele>85</ele>
        <time>2024-11-14T13:26:24.179Z</time>
      </trkpt>
      <trkpt lat="44.09087" lon="0.47427">
        <ele>85</ele>
        <time>2024-11-14T13:26:56.179Z</time>
      </trkpt>
      <trkpt lat="44.09086" lon="0.47425">
        <ele>84</ele>
        <time>2024-11-14T13:27:24.179Z</time>
      </trkpt>
      <trkpt lat="44.09079" lon="0.47434">
        <ele>82</ele>
        <time>2024-11-14T13:27:32.179Z</time>
      </trkpt>
      <trkpt lat="44.09002" lon="0.47497">
        <ele>82</ele>
        <time>2024-11-14T13:28:36.179Z</time>
      </trkpt>
      <trkpt lat="44.0896" lon="0.47527">
        <ele>81</ele>
        <time>2024-11-14T13:29:08.179Z</time>
      </trkpt>
      <trkpt lat="44.08918" lon="0.47551">
        <ele>81</ele>
        <time>2024-11-14T13:29:40.179Z</time>
      </trkpt>
      <trkpt lat="44.08912" lon="0.47553">
        <ele>80</ele>
        <time>2024-11-14T13:29:56.179Z</time>
      </trkpt>
      <trkpt lat="44.08907" lon="0.47557">
        <ele>80</ele>
        <time>2024-11-14T13:30:04.179Z</time>
      </trkpt>
      <trkpt lat="44.08885" lon="0.47566">
        <ele>80</ele>
        <time>2024-11-14T13:30:20.179Z</time>
      </trkpt>
      <trkpt lat="44.08845" lon="0.47588">
        <ele>78</ele>
        <time>2024-11-14T13:30:52.179Z</time>
      </trkpt>
      <trkpt lat="44.08787" lon="0.47613">
        <ele>81</ele>
        <time>2024-11-14T13:31:40.179Z</time>
      </trkpt>
      <trkpt lat="44.08748" lon="0.47628">
        <ele>76</ele>
        <time>2024-11-14T13:32:12.179Z</time>
      </trkpt>
      <trkpt lat="44.08739" lon="0.47629">
        <ele>76</ele>
        <time>2024-11-14T13:32:20.179Z</time>
      </trkpt>
      <trkpt lat="44.0873" lon="0.47633">
        <ele>78</ele>
        <time>2024-11-14T13:32:28.179Z</time>
      </trkpt>
      <trkpt lat="44.0871" lon="0.47636">
        <ele>76</ele>
        <time>2024-11-14T13:32:44.179Z</time>
      </trkpt>
      <trkpt lat="44.087" lon="0.47634">
        <ele>75</ele>
        <time>2024-11-14T13:32:52.179Z</time>
      </trkpt>
      <trkpt lat="44.08687" lon="0.47628">
        <ele>75</ele>
        <time>2024-11-14T13:33:08.179Z</time>
      </trkpt>
      <trkpt lat="44.08668" lon="0.4763">
        <ele>78</ele>
        <time>2024-11-14T13:33:24.179Z</time>
      </trkpt>
      <trkpt lat="44.08629" lon="0.47624">
        <ele>79</ele>
        <time>2024-11-14T13:33:56.179Z</time>
      </trkpt>
      <trkpt lat="44.0862" lon="0.4762">
        <ele>79</ele>
        <time>2024-11-14T13:34:04.179Z</time>
      </trkpt>
      <trkpt lat="44.08601" lon="0.47622">
        <ele>77</ele>
        <time>2024-11-14T13:34:20.179Z</time>
      </trkpt>
      <trkpt lat="44.08581" lon="0.47616">
        <ele>78</ele>
        <time>2024-11-14T13:34:36.179Z</time>
      </trkpt>
      <trkpt lat="44.08563" lon="0.47605">
        <ele>75</ele>
        <time>2024-11-14T13:34:52.179Z</time>
      </trkpt>
      <trkpt lat="44.0845" lon="0.47575">
        <ele>74</ele>
        <time>2024-11-14T13:36:28.179Z</time>
      </trkpt>
      <trkpt lat="44.08367" lon="0.47584">
        <ele>67</ele>
        <time>2024-11-14T13:38:32.179Z</time>
      </trkpt>
      <trkpt lat="44.08346" lon="0.47588">
        <ele>65</ele>
        <time>2024-11-14T13:38:48.179Z</time>
      </trkpt>
      <trkpt lat="44.08265" lon="0.47619">
        <ele>71</ele>
        <time>2024-11-14T13:39:52.179Z</time>
      </trkpt>
      <trkpt lat="44.08187" lon="0.47633">
        <ele>90</ele>
        <time>2024-11-14T13:40:52.179Z</time>
      </trkpt>
      <trkpt lat="44.08177" lon="0.47632">
        <ele>89</ele>
        <time>2024-11-14T13:41:00.179Z</time>
      </trkpt>
      <trkpt lat="44.08167" lon="0.47633">
        <ele>89</ele>
        <time>2024-11-14T13:41:08.179Z</time>
      </trkpt>
      <trkpt lat="44.08139" lon="0.47633">
        <ele>88</ele>
        <time>2024-11-14T13:41:32.179Z</time>
      </trkpt>
      <trkpt lat="44.08051" lon="0.47609">
        <ele>87</ele>
        <time>2024-11-14T13:42:44.179Z</time>
      </trkpt>
      <trkpt lat="44.0804" lon="0.47608">
        <ele>88</ele>
        <time>2024-11-14T13:42:52.179Z</time>
      </trkpt>
      <trkpt lat="44.08023" lon="0.47613">
        <ele>93</ele>
        <time>2024-11-14T13:43:12.179Z</time>
      </trkpt>
      <trkpt lat="44.08009" lon="0.4761">
        <ele>92</ele>
        <time>2024-11-14T13:45:48.179Z</time>
      </trkpt>
      <trkpt lat="44.07989" lon="0.4761">
        <ele>93</ele>
        <time>2024-11-14T13:46:08.179Z</time>
      </trkpt>
      <trkpt lat="44.07959" lon="0.47598">
        <ele>89</ele>
        <time>2024-11-14T13:46:32.179Z</time>
      </trkpt>
      <trkpt lat="44.07919" lon="0.47589">
        <ele>90</ele>
        <time>2024-11-14T13:47:04.179Z</time>
      </trkpt>
      <trkpt lat="44.07909" lon="0.47592">
        <ele>90</ele>
        <time>2024-11-14T13:47:12.179Z</time>
      </trkpt>
      <trkpt lat="44.079" lon="0.47598">
        <ele>94</ele>
        <time>2024-11-14T13:47:20.179Z</time>
      </trkpt>
      <trkpt lat="44.07876" lon="0.47622">
        <ele>92</ele>
        <time>2024-11-14T13:47:44.179Z</time>
      </trkpt>
      <trkpt lat="44.07852" lon="0.47662">
        <ele>91</ele>
        <time>2024-11-14T13:48:16.179Z</time>
      </trkpt>
      <trkpt lat="44.0782" lon="0.47694">
        <ele>95</ele>
        <time>2024-11-14T13:48:48.179Z</time>
      </trkpt>
      <trkpt lat="44.07811" lon="0.47702">
        <ele>97</ele>
        <time>2024-11-14T13:48:56.179Z</time>
      </trkpt>
      <trkpt lat="44.07806" lon="0.47709">
        <ele>98</ele>
        <time>2024-11-14T13:49:00.179Z</time>
      </trkpt>
      <trkpt lat="44.07731" lon="0.47775">
        <ele>93</ele>
        <time>2024-11-14T13:50:12.179Z</time>
      </trkpt>
      <trkpt lat="44.07668" lon="0.47832">
        <ele>96</ele>
        <time>2024-11-14T13:53:00.179Z</time>
      </trkpt>
      <trkpt lat="44.07649" lon="0.4784">
        <ele>93</ele>
        <time>2024-11-14T13:53:20.179Z</time>
      </trkpt>
      <trkpt lat="44.07619" lon="0.47867">
        <ele>100</ele>
        <time>2024-11-14T13:53:52.179Z</time>
      </trkpt>
      <trkpt lat="44.07604" lon="0.47878">
        <ele>99</ele>
        <time>2024-11-14T13:54:08.179Z</time>
      </trkpt>
      <trkpt lat="44.07558" lon="0.47923">
        <ele>98</ele>
        <time>2024-11-14T13:54:56.179Z</time>
      </trkpt>
      <trkpt lat="44.07531" lon="0.47964">
        <ele>99</ele>
        <time>2024-11-14T13:55:28.179Z</time>
      </trkpt>
      <trkpt lat="44.07503" lon="0.48001">
        <ele>95</ele>
        <time>2024-11-14T13:56:00.179Z</time>
      </trkpt>
      <trkpt lat="44.07463" lon="0.48047">
        <ele>96</ele>
        <time>2024-11-14T13:56:48.179Z</time>
      </trkpt>
      <trkpt lat="44.07435" lon="0.48087">
        <ele>92</ele>
        <time>2024-11-14T13:57:20.179Z</time>
      </trkpt>
      <trkpt lat="44.07418" lon="0.4812">
        <ele>93</ele>
        <time>2024-11-14T13:57:44.179Z</time>
      </trkpt>
      <trkpt lat="44.07396" lon="0.48224">
        <ele>85</ele>
        <time>2024-11-14T13:58:48.179Z</time>
      </trkpt>
      <trkpt lat="44.07397" lon="0.48273">
        <ele>83</ele>
        <time>2024-11-14T13:59:20.179Z</time>
      </trkpt>
      <trkpt lat="44.07396" lon="0.48318">
        <ele>84</ele>
        <time>2024-11-14T14:01:44.179Z</time>
      </trkpt>
      <trkpt lat="44.07394" lon="0.4833">
        <ele>84</ele>
        <time>2024-11-14T14:01:52.179Z</time>
      </trkpt>
      <trkpt lat="44.07377" lon="0.48371">
        <ele>84</ele>
        <time>2024-11-14T14:02:24.179Z</time>
      </trkpt>
      <trkpt lat="44.07312" lon="0.48492">
        <ele>87</ele>
        <time>2024-11-14T14:04:00.179Z</time>
      </trkpt>
      <trkpt lat="44.07305" lon="0.48515">
        <ele>83</ele>
        <time>2024-11-14T14:04:16.179Z</time>
      </trkpt>
      <trkpt lat="44.073" lon="0.48547">
        <ele>86</ele>
        <time>2024-11-14T14:04:48.179Z</time>
      </trkpt>
      <trkpt lat="44.07289" lon="0.48571">
        <ele>85</ele>
        <time>2024-11-14T14:05:20.179Z</time>
      </trkpt>
      <trkpt lat="44.07251" lon="0.4863">
        <ele>86</ele>
        <time>2024-11-14T14:06:40.179Z</time>
      </trkpt>
      <trkpt lat="44.0724" lon="0.48636">
        <ele>84.1</ele>
        <time>2024-11-14T14:06:48.179Z</time>
      </trkpt>
      <trkpt lat="44.07228" lon="0.48642">
        <ele>84</ele>
        <time>2024-11-14T14:06:56.179Z</time>
      </trkpt>
      <trkpt lat="44.07197" lon="0.4864">
        <ele>85</ele>
        <time>2024-11-14T14:07:04.179Z</time>
      </trkpt>
      <trkpt lat="44.0727" lon="0.48705">
        <ele>85</ele>
        <time>2024-11-14T14:08:56.179Z</time>
      </trkpt>
      <trkpt lat="44.07304" lon="0.4873">
        <ele>82</ele>
        <time>2024-11-14T14:09:28.179Z</time>
      </trkpt>
      <trkpt lat="44.07367" lon="0.48785">
        <ele>82</ele>
        <time>2024-11-14T14:10:32.179Z</time>
      </trkpt>
      <trkpt lat="44.07415" lon="0.48829">
        <ele>82</ele>
        <time>2024-11-14T14:11:20.179Z</time>
      </trkpt>
      <trkpt lat="44.07427" lon="0.48845">
        <ele>83</ele>
        <time>2024-11-14T14:11:36.179Z</time>
      </trkpt>
      <trkpt lat="44.07442" lon="0.48861">
        <ele>83</ele>
        <time>2024-11-14T14:11:52.179Z</time>
      </trkpt>
      <trkpt lat="44.07456" lon="0.4888">
        <ele>84</ele>
        <time>2024-11-14T14:12:08.179Z</time>
      </trkpt>
      <trkpt lat="44.07477" lon="0.48925">
        <ele>86</ele>
        <time>2024-11-14T14:12:48.179Z</time>
      </trkpt>
      <trkpt lat="44.07481" lon="0.48927">
        <ele>88</ele>
        <time>2024-11-14T14:13:20.179Z</time>
      </trkpt>
      <trkpt lat="44.0749" lon="0.48911">
        <ele>86</ele>
        <time>2024-11-14T14:14:00.179Z</time>
      </trkpt>
      <trkpt lat="44.07514" lon="0.4884">
        <ele>83</ele>
        <time>2024-11-14T14:14:48.179Z</time>
      </trkpt>
      <trkpt lat="44.0752" lon="0.48829">
        <ele>84</ele>
        <time>2024-11-14T14:14:56.179Z</time>
      </trkpt>
      <trkpt lat="44.07529" lon="0.48822">
        <ele>85</ele>
        <time>2024-11-14T14:15:04.179Z</time>
      </trkpt>
      <trkpt lat="44.07539" lon="0.48821">
        <ele>84</ele>
        <time>2024-11-14T14:15:12.179Z</time>
      </trkpt>
      <trkpt lat="44.07578" lon="0.48833">
        <ele>82</ele>
        <time>2024-11-14T14:15:44.179Z</time>
      </trkpt>
      <trkpt lat="44.07596" lon="0.48836">
        <ele>85</ele>
        <time>2024-11-14T14:16:00.179Z</time>
      </trkpt>
      <trkpt lat="44.07671" lon="0.48829">
        <ele>86</ele>
        <time>2024-11-14T14:17:04.179Z</time>
      </trkpt>
      <trkpt lat="44.07689" lon="0.48825">
        <ele>88</ele>
        <time>2024-11-14T14:17:20.179Z</time>
      </trkpt>
      <trkpt lat="44.07706" lon="0.48823">
        <ele>89</ele>
        <time>2024-11-14T14:17:36.179Z</time>
      </trkpt>
      <trkpt lat="44.07726" lon="0.4883">
        <ele>92</ele>
        <time>2024-11-14T14:17:52.179Z</time>
      </trkpt>
      <trkpt lat="44.07742" lon="0.48839">
        <ele>94</ele>
        <time>2024-11-14T14:18:08.179Z</time>
      </trkpt>
      <trkpt lat="44.07751" lon="0.48839">
        <ele>97</ele>
        <time>2024-11-14T14:18:16.179Z</time>
      </trkpt>
      <trkpt lat="44.07757" lon="0.48835">
        <ele>96</ele>
        <time>2024-11-14T14:18:24.179Z</time>
      </trkpt>
      <trkpt lat="44.0777" lon="0.48792">
        <ele>95</ele>
        <time>2024-11-14T14:18:56.179Z</time>
      </trkpt>
      <trkpt lat="44.07783" lon="0.48743">
        <ele>98</ele>
        <time>2024-11-14T14:19:28.179Z</time>
      </trkpt>
      <trkpt lat="44.07806" lon="0.48667">
        <ele>97</ele>
        <time>2024-11-14T14:20:16.179Z</time>
      </trkpt>
      <trkpt lat="44.07816" lon="0.48643">
        <ele>97</ele>
        <time>2024-11-14T14:20:32.179Z</time>
      </trkpt>
      <trkpt lat="44.07832" lon="0.48625">
        <ele>98</ele>
        <time>2024-11-14T14:20:48.179Z</time>
      </trkpt>
      <trkpt lat="44.0785" lon="0.48613">
        <ele>98</ele>
        <time>2024-11-14T14:21:04.179Z</time>
      </trkpt>
      <trkpt lat="44.07859" lon="0.48613">
        <ele>99</ele>
        <time>2024-11-14T14:21:12.179Z</time>
      </trkpt>
      <trkpt lat="44.07889" lon="0.48635">
        <ele>102</ele>
        <time>2024-11-14T14:21:44.179Z</time>
      </trkpt>
      <trkpt lat="44.07942" lon="0.48681">
        <ele>115</ele>
        <time>2024-11-14T14:22:48.179Z</time>
      </trkpt>
      <trkpt lat="44.07972" lon="0.48703">
        <ele>118</ele>
        <time>2024-11-14T14:23:20.179Z</time>
      </trkpt>
      <trkpt lat="44.08005" lon="0.4873">
        <ele>121</ele>
        <time>2024-11-14T14:24:40.179Z</time>
      </trkpt>
      <trkpt lat="44.08009" lon="0.48739">
        <ele>121</ele>
        <time>2024-11-14T14:28:24.179Z</time>
      </trkpt>
      <trkpt lat="44.08063" lon="0.4878">
        <ele>119</ele>
        <time>2024-11-14T14:29:28.179Z</time>
      </trkpt>
      <trkpt lat="44.08082" lon="0.48791">
        <ele>118</ele>
        <time>2024-11-14T14:29:44.179Z</time>
      </trkpt>
      <trkpt lat="44.08117" lon="0.48817">
        <ele>117</ele>
        <time>2024-11-14T14:30:16.179Z</time>
      </trkpt>
      <trkpt lat="44.08134" lon="0.48825">
        <ele>113</ele>
        <time>2024-11-14T14:30:32.179Z</time>
      </trkpt>
      <trkpt lat="44.08152" lon="0.48838">
        <ele>115</ele>
        <time>2024-11-14T14:30:48.179Z</time>
      </trkpt>
      <trkpt lat="44.0819" lon="0.48859">
        <ele>120</ele>
        <time>2024-11-14T14:31:20.179Z</time>
      </trkpt>
      <trkpt lat="44.08299" lon="0.48934">
        <ele>127</ele>
        <time>2024-11-14T14:33:12.179Z</time>
      </trkpt>
      <trkpt lat="44.08333" lon="0.48962">
        <ele>129</ele>
        <time>2024-11-14T14:33:44.179Z</time>
      </trkpt>
      <trkpt lat="44.0837" lon="0.48984">
        <ele>131</ele>
        <time>2024-11-14T14:34:16.179Z</time>
      </trkpt>
      <trkpt lat="44.08406" lon="0.49008">
        <ele>130</ele>
        <time>2024-11-14T14:34:48.179Z</time>
      </trkpt>
      <trkpt lat="44.08537" lon="0.49104">
        <ele>131</ele>
        <time>2024-11-14T14:36:56.179Z</time>
      </trkpt>
      <trkpt lat="44.08557" lon="0.49114">
        <ele>131</ele>
        <time>2024-11-14T14:37:12.179Z</time>
      </trkpt>
      <trkpt lat="44.08567" lon="0.49116">
        <ele>131</ele>
        <time>2024-11-14T14:37:20.179Z</time>
      </trkpt>
      <trkpt lat="44.08587" lon="0.49113">
        <ele>131</ele>
        <time>2024-11-14T14:37:36.179Z</time>
      </trkpt>
      <trkpt lat="44.08619" lon="0.49106">
        <ele>132</ele>
        <time>2024-11-14T14:38:16.179Z</time>
      </trkpt>
      <trkpt lat="44.08682" lon="0.49091">
        <ele>132</ele>
        <time>2024-11-14T14:39:20.179Z</time>
      </trkpt>
      <trkpt lat="44.08704" lon="0.49091">
        <ele>130</ele>
        <time>2024-11-14T14:39:36.179Z</time>
      </trkpt>
      <trkpt lat="44.08724" lon="0.49101">
        <ele>130</ele>
        <time>2024-11-14T14:39:52.179Z</time>
      </trkpt>
      <trkpt lat="44.08792" lon="0.49159">
        <ele>135</ele>
        <time>2024-11-14T14:40:56.179Z</time>
      </trkpt>
      <trkpt lat="44.08817" lon="0.49177">
        <ele>139</ele>
        <time>2024-11-14T14:41:20.179Z</time>
      </trkpt>
      <trkpt lat="44.08823" lon="0.49184">
        <ele>140</ele>
        <time>2024-11-14T14:41:28.179Z</time>
      </trkpt>
      <trkpt lat="44.08827" lon="0.49187">
        <ele>140</ele>
        <time>2024-11-14T14:41:44.179Z</time>
      </trkpt>
      <trkpt lat="44.08879" lon="0.49223">
        <ele>152</ele>
        <time>2024-11-14T14:43:52.179Z</time>
      </trkpt>
      <trkpt lat="44.08878" lon="0.49239">
        <ele>145</ele>
        <time>2024-11-14T14:46:00.179Z</time>
      </trkpt>
      <trkpt lat="44.0884" lon="0.49383">
        <ele>156</ele>
        <time>2024-11-14T14:47:36.179Z</time>
      </trkpt>
      <trkpt lat="44.08836" lon="0.494">
        <ele>157</ele>
        <time>2024-11-14T14:47:48.179Z</time>
      </trkpt>
      <trkpt lat="44.08833" lon="0.49413">
        <ele>159</ele>
        <time>2024-11-14T14:47:56.179Z</time>
      </trkpt>
      <trkpt lat="44.0884" lon="0.49424">
        <ele>161</ele>
        <time>2024-11-14T14:49:04.179Z</time>
      </trkpt>
      <trkpt lat="44.08848" lon="0.49426">
        <ele>158</ele>
        <time>2024-11-14T14:49:12.179Z</time>
      </trkpt>
      <trkpt lat="44.08865" lon="0.49426">
        <ele>162</ele>
        <time>2024-11-14T14:49:28.179Z</time>
      </trkpt>
      <trkpt lat="44.08873" lon="0.49423">
        <ele>163</ele>
        <time>2024-11-14T14:49:36.179Z</time>
      </trkpt>
      <trkpt lat="44.08888" lon="0.49424">
        <ele>158</ele>
        <time>2024-11-14T14:49:52.179Z</time>
      </trkpt>
      <trkpt lat="44.08915" lon="0.4942">
        <ele>160</ele>
        <time>2024-11-14T14:50:16.179Z</time>
      </trkpt>
      <trkpt lat="44.08925" lon="0.49422">
        <ele>159</ele>
        <time>2024-11-14T14:50:24.179Z</time>
      </trkpt>
      <trkpt lat="44.08944" lon="0.49431">
        <ele>157</ele>
        <time>2024-11-14T14:50:40.179Z</time>
      </trkpt>
      <trkpt lat="44.09148" lon="0.49546">
        <ele>143</ele>
        <time>2024-11-14T14:53:44.179Z</time>
      </trkpt>
      <trkpt lat="44.09157" lon="0.49551">
        <ele>144.5</ele>
        <time>2024-11-14T14:55:24.179Z</time>
      </trkpt>
      <trkpt lat="44.09168" lon="0.49563">
        <ele>143</ele>
        <time>2024-11-14T14:55:40.179Z</time>
      </trkpt>
      <trkpt lat="44.09185" lon="0.49569">
        <ele>141</ele>
        <time>2024-11-14T14:55:56.179Z</time>
      </trkpt>
      <trkpt lat="44.09206" lon="0.4958">
        <ele>141</ele>
        <time>2024-11-14T14:56:12.179Z</time>
      </trkpt>
      <trkpt lat="44.09216" lon="0.49583">
        <ele>142</ele>
        <time>2024-11-14T14:56:20.179Z</time>
      </trkpt>
      <trkpt lat="44.09264" lon="0.49588">
        <ele>142</ele>
        <time>2024-11-14T14:56:52.179Z</time>
      </trkpt>
      <trkpt lat="44.09269" lon="0.49585">
        <ele>141</ele>
        <time>2024-11-14T14:56:56.179Z</time>
      </trkpt>
      <trkpt lat="44.09273" lon="0.49579">
        <ele>141</ele>
        <time>2024-11-14T14:57:00.179Z</time>
      </trkpt>
      <trkpt lat="44.09291" lon="0.49521">
        <ele>142</ele>
        <time>2024-11-14T14:57:32.179Z</time>
      </trkpt>
      <trkpt lat="44.09306" lon="0.49494">
        <ele>142</ele>
        <time>2024-11-14T14:57:48.179Z</time>
      </trkpt>
      <trkpt lat="44.09323" lon="0.49475">
        <ele>142</ele>
        <time>2024-11-14T14:58:04.179Z</time>
      </trkpt>
      <trkpt lat="44.09332" lon="0.49461">
        <ele>141</ele>
        <time>2024-11-14T14:58:12.179Z</time>
      </trkpt>
      <trkpt lat="44.09341" lon="0.49397">
        <ele>141</ele>
        <time>2024-11-14T14:58:44.179Z</time>
      </trkpt>
      <trkpt lat="44.0935" lon="0.49303">
        <ele>136</ele>
        <time>2024-11-14T14:59:32.179Z</time>
      </trkpt>
      <trkpt lat="44.09394" lon="0.49137">
        <ele>130</ele>
        <time>2024-11-14T15:01:08.179Z</time>
      </trkpt>
      <trkpt lat="44.09435" lon="0.48952">
        <ele>133</ele>
        <time>2024-11-14T15:03:00.179Z</time>
      </trkpt>
      <trkpt lat="44.09439" lon="0.48939">
        <ele>134</ele>
        <time>2024-11-14T15:03:12.179Z</time>
      </trkpt>
      <trkpt lat="44.09441" lon="0.48927">
        <ele>134</ele>
        <time>2024-11-14T15:03:24.179Z</time>
      </trkpt>
      <trkpt lat="44.09449" lon="0.48924">
        <ele>135</ele>
        <time>2024-11-14T15:05:44.179Z</time>
      </trkpt>
      <trkpt lat="44.09459" lon="0.48928">
        <ele>134</ele>
        <time>2024-11-14T15:05:52.179Z</time>
      </trkpt>
      <trkpt lat="44.09466" lon="0.48934">
        <ele>136</ele>
        <time>2024-11-14T15:06:00.179Z</time>
      </trkpt>
      <trkpt lat="44.09504" lon="0.48947">
        <ele>140</ele>
        <time>2024-11-14T15:06:32.179Z</time>
      </trkpt>
      <trkpt lat="44.09544" lon="0.48965">
        <ele>141</ele>
        <time>2024-11-14T15:07:04.179Z</time>
      </trkpt>
      <trkpt lat="44.09616" lon="0.48994">
        <ele>153</ele>
        <time>2024-11-14T15:08:08.179Z</time>
      </trkpt>
      <trkpt lat="44.09622" lon="0.49">
        <ele>153</ele>
        <time>2024-11-14T15:08:16.179Z</time>
      </trkpt>
      <trkpt lat="44.0964" lon="0.49007">
        <ele>155</ele>
        <time>2024-11-14T15:08:32.179Z</time>
      </trkpt>
      <trkpt lat="44.09658" lon="0.49037">
        <ele>155.4</ele>
        <time>2024-11-14T15:09:16.179Z</time>
      </trkpt>
      <trkpt lat="44.0968" lon="0.4902">
        <ele>156</ele>
        <time>2024-11-14T15:09:24.179Z</time>
      </trkpt>
      <trkpt lat="44.09715" lon="0.48992">
        <ele>156</ele>
        <time>2024-11-14T15:09:56.179Z</time>
      </trkpt>
      <trkpt lat="44.09731" lon="0.48977">
        <ele>156</ele>
        <time>2024-11-14T15:10:12.179Z</time>
      </trkpt>
      <trkpt lat="44.09747" lon="0.48965">
        <ele>152</ele>
        <time>2024-11-14T15:10:28.179Z</time>
      </trkpt>
      <trkpt lat="44.0978" lon="0.48931">
        <ele>148</ele>
        <time>2024-11-14T15:11:00.179Z</time>
      </trkpt>
      <trkpt lat="44.09787" lon="0.48921">
        <ele>147</ele>
        <time>2024-11-14T15:11:08.179Z</time>
      </trkpt>
      <trkpt lat="44.09802" lon="0.48908">
        <ele>143</ele>
        <time>2024-11-14T15:11:24.179Z</time>
      </trkpt>
      <trkpt lat="44.09817" lon="0.48894">
        <ele>140</ele>
        <time>2024-11-14T15:11:40.179Z</time>
      </trkpt>
      <trkpt lat="44.09833" lon="0.48881">
        <ele>140</ele>
        <time>2024-11-14T15:11:56.179Z</time>
      </trkpt>
      <trkpt lat="44.09844" lon="0.48875">
        <ele>143</ele>
        <time>2024-11-14T15:12:04.179Z</time>
      </trkpt>
      <trkpt lat="44.09865" lon="0.48869">
        <ele>139</ele>
        <time>2024-11-14T15:12:20.179Z</time>
      </trkpt>
      <trkpt lat="44.10079" lon="0.48859">
        <ele>119</ele>
        <time>2024-11-14T15:15:08.179Z</time>
      </trkpt>
      <trkpt lat="44.10118" lon="0.4884">
        <ele>114</ele>
        <time>2024-11-14T15:15:44.179Z</time>
      </trkpt>
      <trkpt lat="44.10101" lon="0.48797">
        <ele>116</ele>
        <time>2024-11-14T15:16:16.179Z</time>
      </trkpt>
      <trkpt lat="44.10099" lon="0.48786">
        <ele>116</ele>
        <time>2024-11-14T15:16:24.179Z</time>
      </trkpt>
      <trkpt lat="44.10084" lon="0.48741">
        <ele>118</ele>
        <time>2024-11-14T15:16:56.179Z</time>
      </trkpt>
      <trkpt lat="44.1007" lon="0.48693">
        <ele>125</ele>
        <time>2024-11-14T15:17:36.179Z</time>
      </trkpt>
      <trkpt lat="44.10063" lon="0.48643">
        <ele>127</ele>
        <time>2024-11-14T15:18:08.179Z</time>
      </trkpt>
      <trkpt lat="44.10055" lon="0.48609">
        <ele>127</ele>
        <time>2024-11-14T15:18:32.179Z</time>
      </trkpt>
      <trkpt lat="44.10031" lon="0.48569">
        <ele>126</ele>
        <time>2024-11-14T15:19:04.179Z</time>
      </trkpt>
      <trkpt lat="44.09983" lon="0.48515">
        <ele>131</ele>
        <time>2024-11-14T15:19:52.179Z</time>
      </trkpt>
      <trkpt lat="44.0996" lon="0.4847">
        <ele>132</ele>
        <time>2024-11-14T15:20:24.179Z</time>
      </trkpt>
      <trkpt lat="44.09886" lon="0.48357">
        <ele>128</ele>
        <time>2024-11-14T15:22:00.179Z</time>
      </trkpt>
      <trkpt lat="44.09866" lon="0.48332">
        <ele>129</ele>
        <time>2024-11-14T15:22:28.179Z</time>
      </trkpt>
      <trkpt lat="44.09849" lon="0.483">
        <ele>127</ele>
        <time>2024-11-14T15:23:28.179Z</time>
      </trkpt>
      <trkpt lat="44.0985" lon="0.48304">
        <ele>126</ele>
        <time>2024-11-14T15:23:36.179Z</time>
      </trkpt>
      <trkpt lat="44.09844" lon="0.48291">
        <ele>127</ele>
        <time>2024-11-14T15:24:32.179Z</time>
      </trkpt>
      <trkpt lat="44.09807" lon="0.48239">
        <ele>116</ele>
        <time>2024-11-14T15:25:28.179Z</time>
      </trkpt>
      <trkpt lat="44.09789" lon="0.48221">
        <ele>118</ele>
        <time>2024-11-14T15:26:08.179Z</time>
      </trkpt>
      <trkpt lat="44.09774" lon="0.48199">
        <ele>117</ele>
        <time>2024-11-14T15:26:32.179Z</time>
      </trkpt>
      <trkpt lat="44.09706" lon="0.48136">
        <ele>123</ele>
        <time>2024-11-14T15:27:44.179Z</time>
      </trkpt>
      <trkpt lat="44.09694" lon="0.48132">
        <ele>125</ele>
        <time>2024-11-14T15:28:00.179Z</time>
      </trkpt>
      <trkpt lat="44.09684" lon="0.4813">
        <ele>125</ele>
        <time>2024-11-14T15:28:08.179Z</time>
      </trkpt>
      <trkpt lat="44.09672" lon="0.48121">
        <ele>123</ele>
        <time>2024-11-14T15:28:16.179Z</time>
      </trkpt>
      <trkpt lat="44.09665" lon="0.48113">
        <ele>121</ele>
        <time>2024-11-14T15:28:24.179Z</time>
      </trkpt>
      <trkpt lat="44.09661" lon="0.48103">
        <ele>118</ele>
        <time>2024-11-14T15:28:32.179Z</time>
      </trkpt>
      <trkpt lat="44.09656" lon="0.48046">
        <ele>108</ele>
        <time>2024-11-14T15:29:04.179Z</time>
      </trkpt>
      <trkpt lat="44.09655" lon="0.47929">
        <ele>95</ele>
        <time>2024-11-14T15:30:08.179Z</time>
      </trkpt>
      <trkpt lat="44.09651" lon="0.47849">
        <ele>89</ele>
        <time>2024-11-14T15:30:56.179Z</time>
      </trkpt>
      <trkpt lat="44.09647" lon="0.47826">
        <ele>89</ele>
        <time>2024-11-14T15:31:12.179Z</time>
      </trkpt>
      <trkpt lat="44.09632" lon="0.47799">
        <ele>85</ele>
        <time>2024-11-14T15:31:36.179Z</time>
      </trkpt>
      <trkpt lat="44.09632" lon="0.47785">
        <ele>85</ele>
        <time>2024-11-14T15:31:44.179Z</time>
      </trkpt>
      <trkpt lat="44.09634" lon="0.47777">
        <ele>86</ele>
        <time>2024-11-14T15:31:48.179Z</time>
      </trkpt>
      <trkpt lat="44.09631" lon="0.47771">
        <ele>86</ele>
        <time>2024-11-14T15:32:04.179Z</time>
      </trkpt>
      <trkpt lat="44.09604" lon="0.47771">
        <ele>82</ele>
        <time>2024-11-14T15:32:36.179Z</time>
      </trkpt>
      <trkpt lat="44.09587" lon="0.47769">
        <ele>82</ele>
        <time>2024-11-14T15:32:48.179Z</time>
      </trkpt>
      <trkpt lat="44.09582" lon="0.47765">
        <ele>83</ele>
        <time>2024-11-14T15:32:52.179Z</time>
      </trkpt>
      <trkpt lat="44.09578" lon="0.47755">
        <ele>82</ele>
        <time>2024-11-14T15:33:00.179Z</time>
      </trkpt>
      <trkpt lat="44.09578" lon="0.47744">
        <ele>77</ele>
        <time>2024-11-14T15:33:32.179Z</time>
      </trkpt>
      <trkpt lat="44.09548" lon="0.47638">
        <ele>80</ele>
        <time>2024-11-14T15:34:52.179Z</time>
      </trkpt>
      <trkpt lat="44.09547" lon="0.47625">
        <ele>78</ele>
        <time>2024-11-14T15:35:00.179Z</time>
      </trkpt>
      <trkpt lat="44.09542" lon="0.47613">
        <ele>78</ele>
        <time>2024-11-14T15:35:08.179Z</time>
      </trkpt>
      <trkpt lat="44.09538" lon="0.47587">
        <ele>81</ele>
        <time>2024-11-14T15:35:24.179Z</time>
      </trkpt>
      <trkpt lat="44.09534" lon="0.47576">
        <ele>82</ele>
        <time>2024-11-14T15:35:32.179Z</time>
      </trkpt>
      <trkpt lat="44.09529" lon="0.47569">
        <ele>81</ele>
        <time>2024-11-14T15:35:40.179Z</time>
      </trkpt>
      <trkpt lat="44.0952" lon="0.47547">
        <ele>81</ele>
        <time>2024-11-14T15:35:56.179Z</time>
      </trkpt>
      <trkpt lat="44.095" lon="0.47552">
        <ele>84</ele>
        <time>2024-11-14T15:36:16.179Z</time>
      </trkpt>
      <trkpt lat="44.09496" lon="0.47547">
        <ele>79.3</ele>
        <time>2024-11-14T15:40:36.179Z</time>
      </trkpt>
      <trkpt lat="44.09496" lon="0.47542">
        <ele>79.3</ele>
        <time>2024-11-14T15:41:30.179Z</time>
      </trkpt>
    </trkseg>
  </trk>
</gpx>